Pagrindinis puslapis
METAR-TAF:

METAR-TAF

Oro uostai :

Hurlburt Field

Mary Esther, Florida, Jungtinės Amerikos Valstijos

platuma: 30-25N, ilguma: 086-41W, Aukštis: 12 m

Dabartinis oras

Ataskaita buvo paskelbta 52 minutes, ne 21:56 UTC
Vėjas 10 kt iš Pietų
Temperatūra 29°C
Drėgmė 70%
Slėgis 1014 hPa
Matomumas: 16.1 km
Išsisklaidę debesys ne aukštis 21000 ft

METAR: KHRT 052156Z 18010KT 10SM SCT210 29/23 A2994 RMK AO2A SLP140 T02880232 $

Laikas: 17:48 (22:48 UTC)

Prognozė

Ataskaita buvo paskelbta 4 valandos ir 48 minutes, ne 18:00 UTC
Prognozė galioja nuo 05 metu 18 UTC su 06 metu 24 UTC
Vėjas 4 kt iš Šiaurės
Matomumas 10 km arba daugiau
Išsisklaidę debesys ne aukštis 5500 ft
Išsisklaidę debesys ne aukštis 20000 ft
Tapsmas
nuo 05 metu 23 UTC su 05 metu 24 UTC
Vėjas 6 kt iš Pietų
Matomumas 10 km arba daugiau
Mažai debesys ne aukštis 25000 ft

TAF: KHRT 051800Z 0518/0624 01004KT 9999 SCT055 SCT200 QNH2994INS BECMG 0523/0524 17006KT 9999 FEW250 QNH2992INS TX30/0521Z TN20/0611Z

Orai ataskaitas ir orų prognozės (METAR, TAF).

turimą stotys yra geltonos ir raudonos taškus žemėlapyje.

Perkelti pele per norėdami pamatyti stoties vardą.

Tada spustelėkite, norėdami matyti oro stebėjimo ir prognozės.

Norėdami pakeisti žemėlapį: spustelėkite ant žalios mygtukų su juodo kryžiaus žemyn,; žalią mygtuką su brūkšneliu, jei norite nutolinti; arba žalių rodyklių gretimoms žemėlapius.


METAR-TAF: